sensor_id;sensor_type;location;lat;lon;timestamp;P1;durP1;ratioP1;P2;durP2;ratioP2
49800;SDS011;35698;50.232;30.540;2023-04-25T00:00:34;4.80;;;2.78;;
49800;SDS011;35698;50.232;30.540;2023-04-25T00:01:38;4.18;;;2.81;;
49800;SDS011;35698;50.232;30.540;2023-04-25T00:02:59;6.18;;;2.89;;
49800;SDS011;35698;50.232;30.540;2023-04-25T00:04:11;4.66;;;2.86;;
49800;SDS011;35698;50.232;30.540;2023-04-25T00:05:14;3.45;;;2.24;;
49800;SDS011;35698;50.232;30.540;2023-04-25T00:06:36;5.33;;;2.37;;
49800;SDS011;35698;50.232;30.540;2023-04-25T00:07:47;2.72;;;2.39;;
49800;SDS011;35698;50.232;30.540;2023-04-25T00:08:50;2.84;;;2.24;;
49800;SDS011;35698;50.232;30.540;2023-04-25T00:10:12;3.23;;;2.73;;
49800;SDS011;35698;50.232;30.540;2023-04-25T00:11:29;4.70;;;2.62;;
49800;SDS011;35698;50.232;30.540;2023-04-25T00:12:32;5.62;;;2.51;;
49800;SDS011;35698;50.232;30.540;2023-04-25T00:13:54;3.44;;;2.18;;
49800;SDS011;35698;50.232;30.540;2023-04-25T00:14:57;2.49;;;2.29;;
49800;SDS011;35698;50.232;30.540;2023-04-25T00:16:15;3.69;;;2.31;;
49800;SDS011;35698;50.232;30.540;2023-04-25T00:17:18;4.08;;;2.55;;
49800;SDS011;35698;50.232;30.540;2023-04-25T00:18:39;4.52;;;2.68;;
49800;SDS011;35698;50.232;30.540;2023-04-25T00:19:42;5.64;;;2.56;;
49800;SDS011;35698;50.232;30.540;2023-04-25T00:20:54;3.52;;;2.37;;
49800;SDS011;35698;50.232;30.540;2023-04-25T00:21:57;4.23;;;2.37;;
49800;SDS011;35698;50.232;30.540;2023-04-25T00:23:19;4.31;;;2.42;;
49800;SDS011;35698;50.232;30.540;2023-04-25T00:24:36;4.02;;;2.53;;
49800;SDS011;35698;50.232;30.540;2023-04-25T00:25:40;2.87;;;2.29;;
49800;SDS011;35698;50.232;30.540;2023-04-25T00:27:01;6.08;;;3.22;;
49800;SDS011;35698;50.232;30.540;2023-04-25T00:28:13;3.56;;;2.66;;
49800;SDS011;35698;50.232;30.540;2023-04-25T00:29:16;5.78;;;3.70;;
49800;SDS011;35698;50.232;30.540;2023-04-25T00:30:25;5.93;;;2.98;;
49800;SDS011;35698;50.232;30.540;2023-04-25T00:31:28;6.48;;;4.39;;
49800;SDS011;35698;50.232;30.540;2023-04-25T00:32:32;6.34;;;4.46;;
49800;SDS011;35698;50.232;30.540;2023-04-25T00:33:50;8.57;;;4.72;;
49800;SDS011;35698;50.232;30.540;2023-04-25T00:34:54;8.81;;;5.32;;
49800;SDS011;35698;50.232;30.540;2023-04-25T00:35:57;7.31;;;4.28;;
49800;SDS011;35698;50.232;30.540;2023-04-25T00:37:08;5.75;;;3.90;;
49800;SDS011;35698;50.232;30.540;2023-04-25T00:38:12;4.79;;;4.06;;
49800;SDS011;35698;50.232;30.540;2023-04-25T00:39:15;5.86;;;4.18;;
49800;SDS011;35698;50.232;30.540;2023-04-25T00:40:26;6.00;;;3.61;;
49800;SDS011;35698;50.232;30.540;2023-04-25T00:41:30;6.41;;;3.06;;
49800;SDS011;35698;50.232;30.540;2023-04-25T00:42:48;5.46;;;2.62;;
49800;SDS011;35698;50.232;30.540;2023-04-25T00:43:52;2.75;;;2.39;;
49800;SDS011;35698;50.232;30.540;2023-04-25T00:44:58;4.12;;;2.92;;
49800;SDS011;35698;50.232;30.540;2023-04-25T00:46:13;3.37;;;2.94;;
49800;SDS011;35698;50.232;30.540;2023-04-25T00:47:17;10.24;;;3.59;;
49800;SDS011;35698;50.232;30.540;2023-04-25T00:48:34;8.66;;;3.41;;
49800;SDS011;35698;50.232;30.540;2023-04-25T00:49:38;6.86;;;3.34;;
49800;SDS011;35698;50.232;30.540;2023-04-25T00:50:57;4.71;;;3.04;;
49800;SDS011;35698;50.232;30.540;2023-04-25T00:52:01;5.28;;;3.55;;
49800;SDS011;35698;50.232;30.540;2023-04-25T00:53:12;5.80;;;4.23;;
49800;SDS011;35698;50.232;30.540;2023-04-25T00:54:15;7.79;;;5.49;;
49800;SDS011;35698;50.232;30.540;2023-04-25T00:55:27;8.08;;;5.22;;
49800;SDS011;35698;50.232;30.540;2023-04-25T00:56:30;6.04;;;4.16;;
49800;SDS011;35698;50.232;30.540;2023-04-25T00:57:41;8.81;;;5.62;;
49800;SDS011;35698;50.232;30.540;2023-04-25T00:58:45;7.94;;;4.74;;
49800;SDS011;35698;50.232;30.540;2023-04-25T00:59:57;7.65;;;4.79;;
49800;SDS011;35698;50.232;30.540;2023-04-25T01:01:01;5.63;;;3.74;;
49800;SDS011;35698;50.232;30.540;2023-04-25T01:02:13;6.27;;;4.38;;
49800;SDS011;35698;50.232;30.540;2023-04-25T01:03:17;5.78;;;4.97;;
49800;SDS011;35698;50.232;30.540;2023-04-25T01:04:24;5.42;;;4.24;;
49800;SDS011;35698;50.232;30.540;2023-04-25T01:05:37;6.49;;;3.97;;
49800;SDS011;35698;50.232;30.540;2023-04-25T01:06:43;6.64;;;4.26;;
49800;SDS011;35698;50.232;30.540;2023-04-25T01:07:46;9.31;;;4.28;;
49800;SDS011;35698;50.232;30.540;2023-04-25T01:08:58;4.66;;;4.13;;
49800;SDS011;35698;50.232;30.540;2023-04-25T01:10:02;6.71;;;4.30;;
49800;SDS011;35698;50.232;30.540;2023-04-25T01:11:06;7.46;;;3.66;;
49800;SDS011;35698;50.232;30.540;2023-04-25T01:12:23;5.69;;;4.09;;
49800;SDS011;35698;50.232;30.540;2023-04-25T01:13:27;6.39;;;3.87;;
49800;SDS011;35698;50.232;30.540;2023-04-25T01:14:30;4.71;;;3.72;;
49800;SDS011;35698;50.232;30.540;2023-04-25T01:15:33;9.36;;;4.17;;
49800;SDS011;35698;50.232;30.540;2023-04-25T01:16:51;5.45;;;4.05;;
49800;SDS011;35698;50.232;30.540;2023-04-25T01:17:54;4.89;;;3.86;;
49800;SDS011;35698;50.232;30.540;2023-04-25T01:19:08;5.96;;;4.42;;
49800;SDS011;35698;50.232;30.540;2023-04-25T01:20:12;5.40;;;4.01;;
49800;SDS011;35698;50.232;30.540;2023-04-25T01:21:24;6.15;;;4.48;;
49800;SDS011;35698;50.232;30.540;2023-04-25T01:22:28;7.86;;;3.75;;
49800;SDS011;35698;50.232;30.540;2023-04-25T01:23:31;4.49;;;3.92;;
49800;SDS011;35698;50.232;30.540;2023-04-25T01:24:43;7.53;;;4.16;;
49800;SDS011;35698;50.232;30.540;2023-04-25T01:25:46;4.14;;;3.69;;
49800;SDS011;35698;50.232;30.540;2023-04-25T01:26:50;6.28;;;4.15;;
49800;SDS011;35698;50.232;30.540;2023-04-25T01:27:54;5.36;;;3.70;;
49800;SDS011;35698;50.232;30.540;2023-04-25T01:29:12;6.12;;;4.04;;
49800;SDS011;35698;50.232;30.540;2023-04-25T01:30:15;6.29;;;4.26;;
49800;SDS011;35698;50.232;30.540;2023-04-25T01:31:27;5.32;;;4.28;;
49800;SDS011;35698;50.232;30.540;2023-04-25T01:32:31;7.48;;;4.54;;
49800;SDS011;35698;50.232;30.540;2023-04-25T01:33:44;5.27;;;3.67;;
49800;SDS011;35698;50.232;30.540;2023-04-25T01:34:47;4.81;;;3.52;;
49800;SDS011;35698;50.232;30.540;2023-04-25T01:35:50;4.83;;;3.84;;
49800;SDS011;35698;50.232;30.540;2023-04-25T01:36:54;5.45;;;3.50;;
49800;SDS011;35698;50.232;30.540;2023-04-25T01:37:57;7.28;;;4.96;;
49800;SDS011;35698;50.232;30.540;2023-04-25T01:39:01;5.97;;;3.84;;
49800;SDS011;35698;50.232;30.540;2023-04-25T01:40:12;4.60;;;3.53;;
49800;SDS011;35698;50.232;30.540;2023-04-25T01:41:16;6.34;;;4.05;;
49800;SDS011;35698;50.232;30.540;2023-04-25T01:42:27;4.13;;;3.60;;
49800;SDS011;35698;50.232;30.540;2023-04-25T01:43:31;6.29;;;4.43;;
49800;SDS011;35698;50.232;30.540;2023-04-25T01:44:34;7.17;;;3.98;;
49800;SDS011;35698;50.232;30.540;2023-04-25T01:45:37;4.01;;;3.61;;
49800;SDS011;35698;50.232;30.540;2023-04-25T01:46:55;6.14;;;3.32;;
49800;SDS011;35698;50.232;30.540;2023-04-25T01:47:58;4.68;;;3.99;;
49800;SDS011;35698;50.232;30.540;2023-04-25T01:49:10;5.45;;;4.00;;
49800;SDS011;35698;50.232;30.540;2023-04-25T01:50:14;8.85;;;4.44;;
49800;SDS011;35698;50.232;30.540;2023-04-25T01:51:18;5.76;;;4.18;;
49800;SDS011;35698;50.232;30.540;2023-04-25T01:52:40;4.66;;;4.14;;
49800;SDS011;35698;50.232;30.540;2023-04-25T01:53:43;5.89;;;3.76;;
49800;SDS011;35698;50.232;30.540;2023-04-25T01:54:55;5.79;;;3.86;;
49800;SDS011;35698;50.232;30.540;2023-04-25T01:56:00;6.37;;;3.79;;
49800;SDS011;35698;50.232;30.540;2023-04-25T01:57:11;7.52;;;3.65;;
49800;SDS011;35698;50.232;30.540;2023-04-25T01:58:15;5.03;;;3.77;;
49800;SDS011;35698;50.232;30.540;2023-04-25T01:59:18;8.36;;;4.54;;
49800;SDS011;35698;50.232;30.540;2023-04-25T02:00:31;7.34;;;3.64;;
49800;SDS011;35698;50.232;30.540;2023-04-25T02:01:35;4.83;;;3.62;;
49800;SDS011;35698;50.232;30.540;2023-04-25T02:02:38;5.51;;;3.78;;
49800;SDS011;35698;50.232;30.540;2023-04-25T02:04:00;7.26;;;4.04;;
49800;SDS011;35698;50.232;30.540;2023-04-25T02:05:11;3.86;;;3.37;;
49800;SDS011;35698;50.232;30.540;2023-04-25T02:06:14;4.76;;;3.40;;
49800;SDS011;35698;50.232;30.540;2023-04-25T02:07:19;4.99;;;3.71;;
49800;SDS011;35698;50.232;30.540;2023-04-25T02:08:41;4.37;;;3.00;;
49800;SDS011;35698;50.232;30.540;2023-04-25T02:09:48;6.66;;;3.50;;
49800;SDS011;35698;50.232;30.540;2023-04-25T02:11:05;5.72;;;3.35;;
49800;SDS011;35698;50.232;30.540;2023-04-25T02:12:09;5.18;;;3.56;;
49800;SDS011;35698;50.232;30.540;2023-04-25T02:13:21;4.43;;;3.52;;
49800;SDS011;35698;50.232;30.540;2023-04-25T02:14:24;5.44;;;3.47;;
49800;SDS011;35698;50.232;30.540;2023-04-25T02:15:35;5.87;;;3.77;;
49800;SDS011;35698;50.232;30.540;2023-04-25T02:16:39;6.36;;;3.50;;
49800;SDS011;35698;50.232;30.540;2023-04-25T02:17:50;4.48;;;3.43;;
49800;SDS011;35698;50.232;30.540;2023-04-25T02:18:54;4.44;;;3.32;;
49800;SDS011;35698;50.232;30.540;2023-04-25T02:20:05;4.52;;;3.44;;
49800;SDS011;35698;50.232;30.540;2023-04-25T02:21:09;3.99;;;3.30;;
49800;SDS011;35698;50.232;30.540;2023-04-25T02:22:20;4.64;;;3.84;;
49800;SDS011;35698;50.232;30.540;2023-04-25T02:23:23;4.09;;;3.36;;
49800;SDS011;35698;50.232;30.540;2023-04-25T02:24:44;3.36;;;2.90;;
49800;SDS011;35698;50.232;30.540;2023-04-25T02:26:06;4.81;;;3.30;;
49800;SDS011;35698;50.232;30.540;2023-04-25T02:27:09;3.64;;;2.99;;
49800;SDS011;35698;50.232;30.540;2023-04-25T02:28:12;4.72;;;3.31;;
49800;SDS011;35698;50.232;30.540;2023-04-25T02:29:16;4.35;;;3.19;;
49800;SDS011;35698;50.232;30.540;2023-04-25T02:30:27;5.22;;;3.04;;
49800;SDS011;35698;50.232;30.540;2023-04-25T02:31:30;4.72;;;3.14;;
49800;SDS011;35698;50.232;30.540;2023-04-25T02:32:51;3.81;;;3.01;;
49800;SDS011;35698;50.232;30.540;2023-04-25T02:34:09;4.63;;;3.13;;
49800;SDS011;35698;50.232;30.540;2023-04-25T02:35:12;2.92;;;2.62;;
49800;SDS011;35698;50.232;30.540;2023-04-25T02:36:33;5.89;;;2.99;;
49800;SDS011;35698;50.232;30.540;2023-04-25T02:57:09;3.31;;;2.82;;
49800;SDS011;35698;50.232;30.540;2023-04-25T02:58:12;6.83;;;3.37;;
49800;SDS011;35698;50.232;30.540;2023-04-25T02:59:24;6.84;;;3.56;;
49800;SDS011;35698;50.232;30.540;2023-04-25T03:00:27;5.34;;;2.76;;
49800;SDS011;35698;50.232;30.540;2023-04-25T03:01:31;10.84;;;2.82;;
49800;SDS011;35698;50.232;30.540;2023-04-25T03:02:34;4.61;;;3.01;;
49800;SDS011;35698;50.232;30.540;2023-04-25T03:03:45;4.48;;;2.84;;
49800;SDS011;35698;50.232;30.540;2023-04-25T03:04:49;4.25;;;3.21;;
49800;SDS011;35698;50.232;30.540;2023-04-25T03:05:52;4.67;;;3.11;;
49800;SDS011;35698;50.232;30.540;2023-04-25T03:06:56;6.14;;;3.81;;
49800;SDS011;35698;50.232;30.540;2023-04-25T03:08:13;8.52;;;3.94;;
49800;SDS011;35698;50.232;30.540;2023-04-25T03:09:16;3.96;;;2.72;;
49800;SDS011;35698;50.232;30.540;2023-04-25T03:10:20;4.49;;;2.74;;
49800;SDS011;35698;50.232;30.540;2023-04-25T03:11:31;3.56;;;2.78;;
49800;SDS011;35698;50.232;30.540;2023-04-25T03:12:34;3.44;;;2.97;;
49800;SDS011;35698;50.232;30.540;2023-04-25T03:13:46;3.68;;;2.62;;
49800;SDS011;35698;50.232;30.540;2023-04-25T03:14:49;4.19;;;3.17;;
49800;SDS011;35698;50.232;30.540;2023-04-25T03:15:53;5.56;;;3.94;;
49800;SDS011;35698;50.232;30.540;2023-04-25T03:17:04;4.61;;;3.92;;
49800;SDS011;35698;50.232;30.540;2023-04-25T03:18:07;5.98;;;4.17;;
49800;SDS011;35698;50.232;30.540;2023-04-25T03:19:10;5.38;;;3.83;;
49800;SDS011;35698;50.232;30.540;2023-04-25T03:20:13;4.11;;;3.71;;
49800;SDS011;35698;50.232;30.540;2023-04-25T03:21:25;10.92;;;4.14;;
49800;SDS011;35698;50.232;30.540;2023-04-25T03:22:28;3.79;;;3.33;;
49800;SDS011;35698;50.232;30.540;2023-04-25T03:23:46;4.88;;;3.56;;
49800;SDS011;35698;50.232;30.540;2023-04-25T03:24:49;5.28;;;3.86;;
49800;SDS011;35698;50.232;30.540;2023-04-25T03:25:53;7.20;;;4.34;;
49800;SDS011;35698;50.232;30.540;2023-04-25T03:27:04;5.54;;;3.73;;
49800;SDS011;35698;50.232;30.540;2023-04-25T03:28:07;8.08;;;3.91;;
49800;SDS011;35698;50.232;30.540;2023-04-25T03:29:11;5.67;;;3.50;;
49800;SDS011;35698;50.232;30.540;2023-04-25T03:30:21;6.53;;;3.99;;
49800;SDS011;35698;50.232;30.540;2023-04-25T03:31:25;4.33;;;3.30;;
49800;SDS011;35698;50.232;30.540;2023-04-25T03:32:28;5.21;;;4.06;;
49800;SDS011;35698;50.232;30.540;2023-04-25T03:33:34;5.11;;;3.85;;
49800;SDS011;35698;50.232;30.540;2023-04-25T03:34:45;6.42;;;4.23;;
49800;SDS011;35698;50.232;30.540;2023-04-25T03:35:49;11.04;;;3.82;;
49800;SDS011;35698;50.232;30.540;2023-04-25T03:37:00;9.05;;;3.94;;
49800;SDS011;35698;50.232;30.540;2023-04-25T03:38:03;7.64;;;4.23;;
49800;SDS011;35698;50.232;30.540;2023-04-25T03:39:07;8.98;;;4.53;;
49800;SDS011;35698;50.232;30.540;2023-04-25T03:40:24;7.39;;;4.11;;
49800;SDS011;35698;50.232;30.540;2023-04-25T03:41:27;4.95;;;4.46;;
49800;SDS011;35698;50.232;30.540;2023-04-25T03:42:39;6.27;;;4.71;;
49800;SDS011;35698;50.232;30.540;2023-04-25T03:43:42;6.62;;;4.74;;
49800;SDS011;35698;50.232;30.540;2023-04-25T03:44:45;7.53;;;4.58;;
49800;SDS011;35698;50.232;30.540;2023-04-25T03:45:56;5.75;;;4.14;;
49800;SDS011;35698;50.232;30.540;2023-04-25T03:47:00;6.04;;;4.49;;
49800;SDS011;35698;50.232;30.540;2023-04-25T03:48:03;5.59;;;4.00;;
49800;SDS011;35698;50.232;30.540;2023-04-25T03:49:15;5.07;;;4.19;;
49800;SDS011;35698;50.232;30.540;2023-04-25T03:50:20;7.81;;;4.81;;
49800;SDS011;35698;50.232;30.540;2023-04-25T03:51:31;5.67;;;4.86;;
49800;SDS011;35698;50.232;30.540;2023-04-25T03:52:34;9.96;;;4.97;;
49800;SDS011;35698;50.232;30.540;2023-04-25T03:53:47;8.64;;;5.28;;
49800;SDS011;35698;50.232;30.540;2023-04-25T03:54:51;7.34;;;5.46;;
49800;SDS011;35698;50.232;30.540;2023-04-25T03:56:08;9.07;;;6.22;;
49800;SDS011;35698;50.232;30.540;2023-04-25T03:57:12;8.54;;;5.69;;
49800;SDS011;35698;50.232;30.540;2023-04-25T03:58:26;12.26;;;6.93;;
49800;SDS011;35698;50.232;30.540;2023-04-25T03:59:29;9.64;;;6.01;;
49800;SDS011;35698;50.232;30.540;2023-04-25T04:00:40;9.79;;;6.51;;
49800;SDS011;35698;50.232;30.540;2023-04-25T04:01:43;7.92;;;5.94;;
49800;SDS011;35698;50.232;30.540;2023-04-25T04:02:46;8.30;;;5.53;;
49800;SDS011;35698;50.232;30.540;2023-04-25T04:04:03;8.76;;;5.48;;
49800;SDS011;35698;50.232;30.540;2023-04-25T04:05:07;8.21;;;6.41;;
49800;SDS011;35698;50.232;30.540;2023-04-25T04:06:11;11.57;;;5.72;;
49800;SDS011;35698;50.232;30.540;2023-04-25T04:07:22;9.79;;;6.46;;
49800;SDS011;35698;50.232;30.540;2023-04-25T04:08:25;13.83;;;5.62;;
49800;SDS011;35698;50.232;30.540;2023-04-25T04:09:36;7.14;;;5.39;;
49800;SDS011;35698;50.232;30.540;2023-04-25T04:10:40;6.65;;;5.69;;
49800;SDS011;35698;50.232;30.540;2023-04-25T04:11:51;7.61;;;5.42;;
49800;SDS011;35698;50.232;30.540;2023-04-25T04:12:54;8.23;;;5.22;;
49800;SDS011;35698;50.232;30.540;2023-04-25T04:14:06;9.50;;;6.48;;
49800;SDS011;35698;50.232;30.540;2023-04-25T04:15:10;9.82;;;6.25;;
49800;SDS011;35698;50.232;30.540;2023-04-25T04:16:22;10.16;;;6.84;;
49800;SDS011;35698;50.232;30.540;2023-04-25T04:17:25;10.81;;;6.93;;
49800;SDS011;35698;50.232;30.540;2023-04-25T04:18:37;9.87;;;7.12;;
49800;SDS011;35698;50.232;30.540;2023-04-25T04:19:40;11.06;;;7.58;;
49800;SDS011;35698;50.232;30.540;2023-04-25T04:20:51;10.78;;;7.62;;
49800;SDS011;35698;50.232;30.540;2023-04-25T04:21:54;9.63;;;7.53;;
49800;SDS011;35698;50.232;30.540;2023-04-25T04:22:57;9.82;;;8.08;;
49800;SDS011;35698;50.232;30.540;2023-04-25T04:24:15;11.93;;;8.20;;
49800;SDS011;35698;50.232;30.540;2023-04-25T04:25:18;11.55;;;7.84;;
49800;SDS011;35698;50.232;30.540;2023-04-25T04:26:29;8.83;;;7.07;;
49800;SDS011;35698;50.232;30.540;2023-04-25T04:27:35;9.65;;;7.50;;
49800;SDS011;35698;50.232;30.540;2023-04-25T04:28:46;8.95;;;7.25;;
49800;SDS011;35698;50.232;30.540;2023-04-25T04:29:49;11.61;;;7.66;;
49800;SDS011;35698;50.232;30.540;2023-04-25T04:31:00;9.39;;;7.73;;
49800;SDS011;35698;50.232;30.540;2023-04-25T04:32:04;9.33;;;6.89;;
49800;SDS011;35698;50.232;30.540;2023-04-25T04:33:15;19.99;;;7.86;;
49800;SDS011;35698;50.232;30.540;2023-04-25T04:34:19;12.87;;;7.90;;
49800;SDS011;35698;50.232;30.540;2023-04-25T04:35:30;12.28;;;7.06;;
49800;SDS011;35698;50.232;30.540;2023-04-25T04:36:33;12.54;;;7.06;;
49800;SDS011;35698;50.232;30.540;2023-04-25T04:37:44;10.20;;;7.03;;
49800;SDS011;35698;50.232;30.540;2023-04-25T04:38:47;12.02;;;7.76;;
49800;SDS011;35698;50.232;30.540;2023-04-25T04:39:51;9.56;;;7.75;;
49800;SDS011;35698;50.232;30.540;2023-04-25T04:41:05;8.91;;;7.26;;
49800;SDS011;35698;50.232;30.540;2023-04-25T04:42:09;9.12;;;7.68;;
49800;SDS011;35698;50.232;30.540;2023-04-25T04:43:12;9.84;;;8.23;;
49800;SDS011;35698;50.232;30.540;2023-04-25T04:44:24;10.56;;;7.11;;
49800;SDS011;35698;50.232;30.540;2023-04-25T04:45:28;9.41;;;7.72;;
49800;SDS011;35698;50.232;30.540;2023-04-25T04:46:31;12.25;;;8.02;;
49800;SDS011;35698;50.232;30.540;2023-04-25T04:47:42;10.54;;;7.41;;
49800;SDS011;35698;50.232;30.540;2023-04-25T04:48:45;11.39;;;7.83;;
49800;SDS011;35698;50.232;30.540;2023-04-25T04:49:57;12.95;;;8.40;;
49800;SDS011;35698;50.232;30.540;2023-04-25T04:51:00;12.44;;;7.69;;
49800;SDS011;35698;50.232;30.540;2023-04-25T04:52:04;15.46;;;7.67;;
49800;SDS011;35698;50.232;30.540;2023-04-25T04:53:07;9.41;;;7.53;;
49800;SDS011;35698;50.232;30.540;2023-04-25T04:54:18;10.88;;;7.32;;
49800;SDS011;35698;50.232;30.540;2023-04-25T04:55:21;12.29;;;7.99;;
49800;SDS011;35698;50.232;30.540;2023-04-25T04:56:39;9.96;;;7.72;;
49800;SDS011;35698;50.232;30.540;2023-04-25T04:57:42;12.06;;;8.12;;
49800;SDS011;35698;50.232;30.540;2023-04-25T04:58:53;9.39;;;6.80;;
49800;SDS011;35698;50.232;30.540;2023-04-25T04:59:56;11.55;;;6.19;;
49800;SDS011;35698;50.232;30.540;2023-04-25T05:01:08;10.23;;;6.12;;
49800;SDS011;35698;50.232;30.540;2023-04-25T05:02:11;10.44;;;5.83;;
49800;SDS011;35698;50.232;30.540;2023-04-25T05:03:15;9.10;;;6.40;;
49800;SDS011;35698;50.232;30.540;2023-04-25T05:04:26;12.61;;;6.61;;
49800;SDS011;35698;50.232;30.540;2023-04-25T05:05:29;9.64;;;6.28;;
49800;SDS011;35698;50.232;30.540;2023-04-25T05:06:33;10.09;;;6.69;;
49800;SDS011;35698;50.232;30.540;2023-04-25T05:07:36;8.95;;;6.83;;
49800;SDS011;35698;50.232;30.540;2023-04-25T05:08:39;9.99;;;6.67;;
49800;SDS011;35698;50.232;30.540;2023-04-25T05:09:51;7.21;;;6.13;;
49800;SDS011;35698;50.232;30.540;2023-04-25T05:10:54;10.13;;;6.19;;
49800;SDS011;35698;50.232;30.540;2023-04-25T05:12:05;9.74;;;6.90;;
49800;SDS011;35698;50.232;30.540;2023-04-25T05:13:09;12.21;;;6.70;;
49800;SDS011;35698;50.232;30.540;2023-04-25T05:14:20;12.75;;;6.73;;
49800;SDS011;35698;50.232;30.540;2023-04-25T05:15:23;10.96;;;6.30;;
49800;SDS011;35698;50.232;30.540;2023-04-25T05:16:35;10.58;;;6.82;;
49800;SDS011;35698;50.232;30.540;2023-04-25T05:17:38;10.70;;;6.50;;
49800;SDS011;35698;50.232;30.540;2023-04-25T05:19:00;11.11;;;6.36;;
49800;SDS011;35698;50.232;30.540;2023-04-25T05:20:11;9.18;;;5.64;;
49800;SDS011;35698;50.232;30.540;2023-04-25T05:21:14;8.71;;;5.96;;
49800;SDS011;35698;50.232;30.540;2023-04-25T05:22:36;12.35;;;6.40;;
49800;SDS011;35698;50.232;30.540;2023-04-25T05:23:50;10.66;;;6.64;;
49800;SDS011;35698;50.232;30.540;2023-04-25T05:24:53;14.17;;;5.96;;
49800;SDS011;35698;50.232;30.540;2023-04-25T05:26:15;11.12;;;6.49;;
49800;SDS011;35698;50.232;30.540;2023-04-25T05:27:26;10.48;;;6.69;;
49800;SDS011;35698;50.232;30.540;2023-04-25T05:28:30;12.26;;;5.64;;
49800;SDS011;35698;50.232;30.540;2023-04-25T05:29:51;11.72;;;6.53;;
49800;SDS011;35698;50.232;30.540;2023-04-25T05:31:13;9.07;;;6.15;;
49800;SDS011;35698;50.232;30.540;2023-04-25T05:32:17;9.93;;;6.21;;
49800;SDS011;35698;50.232;30.540;2023-04-25T05:33:20;8.07;;;6.48;;
49800;SDS011;35698;50.232;30.540;2023-04-25T05:34:23;10.68;;;6.83;;
49800;SDS011;35698;50.232;30.540;2023-04-25T05:35:34;13.44;;;6.81;;
49800;SDS011;35698;50.232;30.540;2023-04-25T05:36:37;16.14;;;6.72;;
49800;SDS011;35698;50.232;30.540;2023-04-25T05:37:59;8.20;;;6.21;;
49800;SDS011;35698;50.232;30.540;2023-04-25T05:39:20;12.48;;;7.10;;
49800;SDS011;35698;50.232;30.540;2023-04-25T05:40:31;6.84;;;5.30;;
49800;SDS011;35698;50.232;30.540;2023-04-25T05:41:35;6.58;;;5.63;;
49800;SDS011;35698;50.232;30.540;2023-04-25T05:42:57;10.78;;;6.37;;
49800;SDS011;35698;50.232;30.540;2023-04-25T05:44:18;8.47;;;5.79;;
49800;SDS011;35698;50.232;30.540;2023-04-25T05:45:30;11.30;;;6.18;;
49800;SDS011;35698;50.232;30.540;2023-04-25T05:46:33;12.74;;;7.31;;
49800;SDS011;35698;50.232;30.540;2023-04-25T05:47:44;12.38;;;6.73;;
49800;SDS011;35698;50.232;30.540;2023-04-25T05:48:48;12.63;;;7.35;;
49800;SDS011;35698;50.232;30.540;2023-04-25T05:50:05;7.71;;;6.45;;
49800;SDS011;35698;50.232;30.540;2023-04-25T05:51:13;17.09;;;7.58;;
49800;SDS011;35698;50.232;30.540;2023-04-25T05:52:25;9.81;;;6.98;;
49800;SDS011;35698;50.232;30.540;2023-04-25T05:53:31;7.68;;;6.71;;
49800;SDS011;35698;50.232;30.540;2023-04-25T05:54:50;7.54;;;6.04;;
49800;SDS011;35698;50.232;30.540;2023-04-25T05:55:54;9.21;;;6.42;;
49800;SDS011;35698;50.232;30.540;2023-04-25T05:57:07;15.56;;;7.72;;
49800;SDS011;35698;50.232;30.540;2023-04-25T05:58:10;9.69;;;6.40;;
49800;SDS011;35698;50.232;30.540;2023-04-25T05:59:23;7.41;;;5.75;;
49800;SDS011;35698;50.232;30.540;2023-04-25T06:00:27;9.86;;;6.01;;
49800;SDS011;35698;50.232;30.540;2023-04-25T06:01:38;23.41;;;5.88;;
49800;SDS011;35698;50.232;30.540;2023-04-25T06:02:42;7.36;;;5.96;;
49800;SDS011;35698;50.232;30.540;2023-04-25T06:23:18;8.69;;;4.55;;
49800;SDS011;35698;50.232;30.540;2023-04-25T06:24:31;9.68;;;5.13;;
49800;SDS011;35698;50.232;30.540;2023-04-25T06:25:37;9.14;;;5.67;;
49800;SDS011;35698;50.232;30.540;2023-04-25T06:26:50;5.46;;;4.79;;
49800;SDS011;35698;50.232;30.540;2023-04-25T06:27:53;6.15;;;4.41;;
49800;SDS011;35698;50.232;30.540;2023-04-25T06:48:27;3.71;;;3.18;;
49800;SDS011;35698;50.232;30.540;2023-04-25T06:49:50;4.42;;;3.36;;
49800;SDS011;35698;50.232;30.540;2023-04-25T07:01:25;4.98;;;2.97;;
49800;SDS011;35698;50.232;30.540;2023-04-25T07:02:37;4.32;;;3.36;;
49800;SDS011;35698;50.232;30.540;2023-04-25T07:03:40;5.42;;;3.89;;
49800;SDS011;35698;50.232;30.540;2023-04-25T07:04:52;6.04;;;3.65;;
49800;SDS011;35698;50.232;30.540;2023-04-25T07:05:55;6.61;;;3.72;;
49800;SDS011;35698;50.232;30.540;2023-04-25T07:07:06;4.33;;;3.28;;
49800;SDS011;35698;50.232;30.540;2023-04-25T07:08:09;4.99;;;3.46;;
49800;SDS011;35698;50.232;30.540;2023-04-25T07:09:13;6.62;;;3.51;;
49800;SDS011;35698;50.232;30.540;2023-04-25T07:10:30;7.73;;;3.42;;
49800;SDS011;35698;50.232;30.540;2023-04-25T07:11:34;5.66;;;3.05;;
49800;SDS011;35698;50.232;30.540;2023-04-25T07:12:45;5.06;;;3.23;;
49800;SDS011;35698;50.232;30.540;2023-04-25T07:13:48;4.92;;;3.27;;
49800;SDS011;35698;50.232;30.540;2023-04-25T07:14:55;9.57;;;3.78;;
49800;SDS011;35698;50.232;30.540;2023-04-25T07:15:59;5.54;;;3.59;;
49800;SDS011;35698;50.232;30.540;2023-04-25T07:17:20;7.26;;;3.23;;
49800;SDS011;35698;50.232;30.540;2023-04-25T07:18:31;7.01;;;2.86;;
49800;SDS011;35698;50.232;30.540;2023-04-25T07:19:34;5.63;;;3.54;;
49800;SDS011;35698;50.232;30.540;2023-04-25T07:20:46;6.67;;;4.03;;
49800;SDS011;35698;50.232;30.540;2023-04-25T07:21:51;4.89;;;3.57;;
49800;SDS011;35698;50.232;30.540;2023-04-25T07:23:05;6.64;;;2.94;;
49800;SDS011;35698;50.232;30.540;2023-04-25T07:24:09;4.85;;;2.83;;
49800;SDS011;35698;50.232;30.540;2023-04-25T07:25:12;4.55;;;3.17;;
49800;SDS011;35698;50.232;30.540;2023-04-25T07:26:23;6.36;;;3.07;;
49800;SDS011;35698;50.232;30.540;2023-04-25T07:27:27;4.69;;;2.93;;
49800;SDS011;35698;50.232;30.540;2023-04-25T07:28:38;7.26;;;3.08;;
49800;SDS011;35698;50.232;30.540;2023-04-25T07:29:41;6.30;;;3.46;;
49800;SDS011;35698;50.232;30.540;2023-04-25T07:30:44;33.61;;;15.40;;
49800;SDS011;35698;50.232;30.540;2023-04-25T07:32:02;59.66;;;26.03;;
49800;SDS011;35698;50.232;30.540;2023-04-25T07:33:06;19.91;;;9.49;;
49800;SDS011;35698;50.232;30.540;2023-04-25T07:34:19;13.53;;;6.50;;
49800;SDS011;35698;50.232;30.540;2023-04-25T07:35:23;18.04;;;6.21;;
49800;SDS011;35698;50.232;30.540;2023-04-25T07:36:26;15.84;;;7.10;;
49800;SDS011;35698;50.232;30.540;2023-04-25T07:37:38;11.59;;;5.38;;
49800;SDS011;35698;50.232;30.540;2023-04-25T07:38:41;5.42;;;4.04;;
49800;SDS011;35698;50.232;30.540;2023-04-25T07:39:52;9.01;;;4.37;;
49800;SDS011;35698;50.232;30.540;2023-04-25T07:40:57;7.12;;;3.12;;
49800;SDS011;35698;50.232;30.540;2023-04-25T07:42:14;4.05;;;2.84;;
49800;SDS011;35698;50.232;30.540;2023-04-25T07:43:18;3.83;;;2.68;;
49800;SDS011;35698;50.232;30.540;2023-04-25T07:44:29;6.53;;;2.81;;
49800;SDS011;35698;50.232;30.540;2023-04-25T07:45:32;6.57;;;2.69;;
49800;SDS011;35698;50.232;30.540;2023-04-25T07:46:39;3.93;;;2.79;;
49800;SDS011;35698;50.232;30.540;2023-04-25T07:47:42;5.52;;;3.04;;
49800;SDS011;35698;50.232;30.540;2023-04-25T07:48:59;6.45;;;3.25;;
49800;SDS011;35698;50.232;30.540;2023-04-25T07:50:03;5.31;;;2.54;;
49800;SDS011;35698;50.232;30.540;2023-04-25T07:51:21;4.60;;;2.90;;
49800;SDS011;35698;50.232;30.540;2023-04-25T07:52:25;6.12;;;2.47;;